sensor_id;sensor_type;location;lat;lon;timestamp;P1;durP1;ratioP1;P2;durP2;ratioP2
22017;SDS011;11173;51.050;7.108;2023-03-03T00:07:13;30.05;;;18.58;;
22017;SDS011;11173;51.050;7.108;2023-03-03T00:17:24;24.33;;;16.33;;
22017;SDS011;11173;51.050;7.108;2023-03-03T00:27:30;12.48;;;9.05;;
22017;SDS011;11173;51.050;7.108;2023-03-03T00:37:31;5.45;;;4.90;;
22017;SDS011;11173;51.050;7.108;2023-03-03T00:57:32;6.50;;;5.60;;
22017;SDS011;11173;51.050;7.108;2023-03-03T01:07:32;10.27;;;8.07;;
22017;SDS011;11173;51.050;7.108;2023-03-03T01:17:33;17.42;;;12.25;;
22017;SDS011;11173;51.050;7.108;2023-03-03T01:27:34;28.88;;;18.77;;
22017;SDS011;11173;51.050;7.108;2023-03-03T01:37:34;41.33;;;24.52;;
22017;SDS011;11173;51.050;7.108;2023-03-03T01:47:35;34.95;;;21.42;;
22017;SDS011;11173;51.050;7.108;2023-03-03T01:57:36;27.55;;;18.60;;
22017;SDS011;11173;51.050;7.108;2023-03-03T02:07:37;38.65;;;22.42;;
22017;SDS011;11173;51.050;7.108;2023-03-03T02:17:38;38.15;;;23.98;;
22017;SDS011;11173;51.050;7.108;2023-03-03T02:27:38;43.13;;;26.25;;
22017;SDS011;11173;51.050;7.108;2023-03-03T02:37:38;41.15;;;24.92;;
22017;SDS011;11173;51.050;7.108;2023-03-03T02:47:40;53.65;;;29.55;;
22017;SDS011;11173;51.050;7.108;2023-03-03T02:57:40;45.67;;;26.52;;
22017;SDS011;11173;51.050;7.108;2023-03-03T03:07:40;41.30;;;23.73;;
22017;SDS011;11173;51.050;7.108;2023-03-03T03:17:40;38.00;;;22.42;;
22017;SDS011;11173;51.050;7.108;2023-03-03T03:27:41;41.95;;;24.63;;
22017;SDS011;11173;51.050;7.108;2023-03-03T03:37:41;43.95;;;25.27;;
22017;SDS011;11173;51.050;7.108;2023-03-03T03:47:41;48.17;;;27.80;;
22017;SDS011;11173;51.050;7.108;2023-03-03T03:57:42;39.72;;;22.52;;
22017;SDS011;11173;51.050;7.108;2023-03-03T04:07:42;37.25;;;21.27;;
22017;SDS011;11173;51.050;7.108;2023-03-03T04:17:42;42.55;;;24.00;;
22017;SDS011;11173;51.050;7.108;2023-03-03T04:27:43;33.28;;;20.10;;
22017;SDS011;11173;51.050;7.108;2023-03-03T04:37:43;19.60;;;13.55;;
22017;SDS011;11173;51.050;7.108;2023-03-03T04:47:43;26.80;;;17.65;;
22017;SDS011;11173;51.050;7.108;2023-03-03T04:57:44;27.13;;;16.90;;
22017;SDS011;11173;51.050;7.108;2023-03-03T05:07:44;27.17;;;16.88;;
22017;SDS011;11173;51.050;7.108;2023-03-03T05:17:44;30.48;;;18.77;;
22017;SDS011;11173;51.050;7.108;2023-03-03T05:27:45;21.30;;;13.73;;
22017;SDS011;11173;51.050;7.108;2023-03-03T05:37:45;29.25;;;18.15;;
22017;SDS011;11173;51.050;7.108;2023-03-03T05:47:46;30.63;;;18.10;;
22017;SDS011;11173;51.050;7.108;2023-03-03T05:57:47;30.13;;;16.70;;
22017;SDS011;11173;51.050;7.108;2023-03-03T06:07:47;24.55;;;16.30;;
22017;SDS011;11173;51.050;7.108;2023-03-03T06:17:48;14.88;;;10.48;;
22017;SDS011;11173;51.050;7.108;2023-03-03T06:27:48;18.58;;;12.68;;
22017;SDS011;11173;51.050;7.108;2023-03-03T06:37:48;22.10;;;14.05;;
22017;SDS011;11173;51.050;7.108;2023-03-03T06:47:49;22.30;;;14.10;;
22017;SDS011;11173;51.050;7.108;2023-03-03T06:57:50;23.45;;;13.80;;
22017;SDS011;11173;51.050;7.108;2023-03-03T07:07:50;22.88;;;13.48;;
22017;SDS011;11173;51.050;7.108;2023-03-03T07:17:54;15.18;;;10.63;;
22017;SDS011;11173;51.050;7.108;2023-03-03T07:27:55;16.50;;;10.48;;
22017;SDS011;11173;51.050;7.108;2023-03-03T07:37:57;19.23;;;12.65;;
22017;SDS011;11173;51.050;7.108;2023-03-03T07:48:10;14.85;;;9.98;;
22017;SDS011;11173;51.050;7.108;2023-03-03T07:58:16;5.65;;;4.88;;
22017;SDS011;11173;51.050;7.108;2023-03-03T08:08:29;7.60;;;5.95;;
22017;SDS011;11173;51.050;7.108;2023-03-03T08:18:39;11.60;;;8.63;;
22017;SDS011;11173;51.050;7.108;2023-03-03T08:28:42;13.32;;;9.68;;
22017;SDS011;11173;51.050;7.108;2023-03-03T08:38:43;14.45;;;9.32;;
22017;SDS011;11173;51.050;7.108;2023-03-03T08:48:43;15.55;;;9.10;;
22017;SDS011;11173;51.050;7.108;2023-03-03T08:58:43;11.52;;;8.60;;
22017;SDS011;11173;51.050;7.108;2023-03-03T09:08:47;13.20;;;9.68;;
22017;SDS011;11173;51.050;7.108;2023-03-03T09:18:48;16.45;;;8.30;;
22017;SDS011;11173;51.050;7.108;2023-03-03T09:28:48;12.20;;;8.32;;
22017;SDS011;11173;51.050;7.108;2023-03-03T09:38:48;12.90;;;9.35;;
22017;SDS011;11173;51.050;7.108;2023-03-03T09:48:51;18.25;;;11.30;;
22017;SDS011;11173;51.050;7.108;2023-03-03T10:09:08;17.10;;;11.15;;
22017;SDS011;11173;51.050;7.108;2023-03-03T10:39:28;13.85;;;10.15;;
22017;SDS011;11173;51.050;7.108;2023-03-03T11:10:21;16.35;;;11.40;;
22017;SDS011;11173;51.050;7.108;2023-03-03T11:40:48;13.95;;;9.85;;
22017;SDS011;11173;51.050;7.108;2023-03-03T12:11:01;8.98;;;7.25;;
22017;SDS011;11173;51.050;7.108;2023-03-03T12:21:07;9.57;;;7.68;;
22017;SDS011;11173;51.050;7.108;2023-03-03T12:31:29;13.25;;;9.23;;
22017;SDS011;11173;51.050;7.108;2023-03-03T12:51:47;13.93;;;8.30;;
22017;SDS011;11173;51.050;7.108;2023-03-03T13:02:02;14.25;;;9.57;;
22017;SDS011;11173;51.050;7.108;2023-03-03T13:22:28;15.48;;;11.10;;
22017;SDS011;11173;51.050;7.108;2023-03-03T13:32:54;17.73;;;11.48;;
22017;SDS011;11173;51.050;7.108;2023-03-03T14:13:23;12.20;;;8.75;;
22017;SDS011;11173;51.050;7.108;2023-03-03T14:23:46;17.52;;;12.02;;
22017;SDS011;11173;51.050;7.108;2023-03-03T14:34:00;12.07;;;8.55;;
22017;SDS011;11173;51.050;7.108;2023-03-03T14:44:20;14.60;;;10.05;;
22017;SDS011;11173;51.050;7.108;2023-03-03T14:54:24;21.38;;;12.65;;
22017;SDS011;11173;51.050;7.108;2023-03-03T15:04:26;19.80;;;11.77;;
22017;SDS011;11173;51.050;7.108;2023-03-03T15:14:42;14.38;;;9.50;;
22017;SDS011;11173;51.050;7.108;2023-03-03T15:24:56;15.20;;;9.88;;
22017;SDS011;11173;51.050;7.108;2023-03-03T15:55:28;13.27;;;7.88;;
22017;SDS011;11173;51.050;7.108;2023-03-03T16:05:32;17.33;;;9.88;;
22017;SDS011;11173;51.050;7.108;2023-03-03T16:36:04;10.13;;;6.38;;
22017;SDS011;11173;51.050;7.108;2023-03-03T16:46:21;15.75;;;9.80;;
22017;SDS011;11173;51.050;7.108;2023-03-03T17:06:38;8.55;;;5.25;;
22017;SDS011;11173;51.050;7.108;2023-03-03T17:16:46;7.15;;;5.32;;
22017;SDS011;11173;51.050;7.108;2023-03-03T17:57:05;4.43;;;3.53;;
22017;SDS011;11173;51.050;7.108;2023-03-03T18:17:35;9.13;;;6.43;;
22017;SDS011;11173;51.050;7.108;2023-03-03T18:27:37;6.18;;;5.30;;
22017;SDS011;11173;51.050;7.108;2023-03-03T18:37:39;4.57;;;4.07;;
22017;SDS011;11173;51.050;7.108;2023-03-03T19:08:13;10.35;;;7.18;;
22017;SDS011;11173;51.050;7.108;2023-03-03T19:18:20;12.48;;;6.80;;
22017;SDS011;11173;51.050;7.108;2023-03-03T19:28:29;7.72;;;5.75;;
22017;SDS011;11173;51.050;7.108;2023-03-03T19:38:35;7.72;;;5.53;;
22017;SDS011;11173;51.050;7.108;2023-03-03T19:58:49;10.10;;;7.05;;
22017;SDS011;11173;51.050;7.108;2023-03-03T20:08:56;6.28;;;4.43;;
22017;SDS011;11173;51.050;7.108;2023-03-03T20:29:05;12.75;;;8.52;;
22017;SDS011;11173;51.050;7.108;2023-03-03T20:39:10;5.90;;;4.25;;
22017;SDS011;11173;51.050;7.108;2023-03-03T20:59:28;16.83;;;10.35;;
22017;SDS011;11173;51.050;7.108;2023-03-03T21:09:31;7.55;;;5.45;;
22017;SDS011;11173;51.050;7.108;2023-03-03T21:19:33;10.55;;;7.18;;
22017;SDS011;11173;51.050;7.108;2023-03-03T21:29:34;9.15;;;6.78;;
22017;SDS011;11173;51.050;7.108;2023-03-03T21:49:34;2.85;;;2.55;;
22017;SDS011;11173;51.050;7.108;2023-03-03T21:59:36;8.27;;;5.60;;
22017;SDS011;11173;51.050;7.108;2023-03-03T22:09:37;10.93;;;7.10;;
22017;SDS011;11173;51.050;7.108;2023-03-03T22:19:37;10.40;;;7.63;;
22017;SDS011;11173;51.050;7.108;2023-03-03T22:29:37;7.75;;;5.68;;
22017;SDS011;11173;51.050;7.108;2023-03-03T22:39:37;11.32;;;7.90;;
22017;SDS011;11173;51.050;7.108;2023-03-03T22:49:38;11.30;;;7.97;;
22017;SDS011;11173;51.050;7.108;2023-03-03T22:59:38;11.98;;;8.48;;
22017;SDS011;11173;51.050;7.108;2023-03-03T23:09:38;11.95;;;8.45;;
22017;SDS011;11173;51.050;7.108;2023-03-03T23:19:38;7.38;;;5.53;;
22017;SDS011;11173;51.050;7.108;2023-03-03T23:29:39;8.55;;;5.80;;
22017;SDS011;11173;51.050;7.108;2023-03-03T23:39:39;18.65;;;10.63;;
22017;SDS011;11173;51.050;7.108;2023-03-03T23:49:40;15.30;;;9.55;;
22017;SDS011;11173;51.050;7.108;2023-03-03T23:59:40;11.57;;;7.85;;
